Airfield :
LOGIN :

Register | Disclaimer

   EN    FR    IT 

 










Legend :    VFR   Marginal VFR   IFR   Intensive IFR   Very Intensive IFR
Visi :
Ceiling :
>= 8 km
>= 3000ft
5 to 8 km
1000 to 3000 ft
1500m to 5 km
500 to 1000 ft
800 to 1500m
200 to 500 ft
< 800m
< 200 ft
Symbols :   Thunderstorms  Fog  Heavy snow  Heavy precipitations  Wind > 20 kt
SIGMETs :     Misc.  Thunderstorms  Icing  Turbulence  Mountain Waves  Volcanic Ashes






- Airport Elevation : 74 ft
- IATA code : EIN


EHEH - Eindhoven

CURRENT METAR :
  • 031955Z AUTO 29005KT 260V030 9999 OVC180 17/09 Q1002 BLU

EXPIRED METARs :
  • 031925Z AUTO 32006KT 260V020 9999 OVC160 18/09 Q1002 BLU
  • 031855Z AUTO 33010KT 270V050 9999 OVC160 19/10 Q1002 BLU
  • 031825Z AUTO 34010KT 290V030 9999 OVC160 20/10 Q1002 BLU
  • 031755Z AUTO 32010KT 220V030 9999 OVC140 21/08 Q1002 BLU
  • 031725Z AUTO 33010KT 260V030 9999 OVC130 22/08 Q1002 BLU

TAF TAF EHEH
Valid from the 03 at 18:00 until the 05 at 00:00 UTC


031747Z 0318/0424 32008KT CAVOK
BECMG 0402/0404 SCT012 BKN018
PROB40
TEMPO 0404/0408 BKN008
BECMG 0409/0412 32010G20KT BKN018
TEMPO 0409/0420 SCT012 SCT015CB BKN018
BECMG 0421/0424 27007KT



MET'MAP, your aeronautical weather chart ! - Copyright ORBIFLY December 2007 - Disclaimer

ORBIFLY MET'MAP TEAM :

Programming & Development : Alexandra Zaïnal
Concept & original design : Baudouin d'Aumeries
Assistance for programming : Marc-Olivier Méhu
Technical & hardware support : Manuel Goepfert

Contact : metmap@orbifly.com




SOURCES & CREDITS :

   NOAA